sensor_id;sensor_type;location;lat;lon;timestamp;temperature;humidity
23477;DHT22;11911;50.768;13.150;2022-10-16T04:07:26;13.20;96.30
23477;DHT22;11911;50.768;13.150;2022-10-16T04:09:52;13.20;96.30
23477;DHT22;11911;50.768;13.150;2022-10-16T04:12:18;13.30;96.30
23477;DHT22;11911;50.768;13.150;2022-10-16T04:17:09;13.40;96.30
23477;DHT22;11911;50.768;13.150;2022-10-16T04:19:35;13.50;96.30
23477;DHT22;11911;50.768;13.150;2022-10-16T06:00:29;14.20;96.30
23477;DHT22;11911;50.768;13.150;2022-10-16T06:02:55;14.60;96.30
23477;DHT22;11911;50.768;13.150;2022-10-16T06:05:20;15.00;96.30
23477;DHT22;11911;50.768;13.150;2022-10-16T06:07:46;15.00;96.30
23477;DHT22;11911;50.768;13.150;2022-10-16T06:10:11;15.00;96.30
23477;DHT22;11911;50.768;13.150;2022-10-16T06:12:37;15.00;96.30
23477;DHT22;11911;50.768;13.150;2022-10-16T06:15:03;15.00;96.30
23477;DHT22;11911;50.768;13.150;2022-10-16T06:17:28;15.00;96.30
23477;DHT22;11911;50.768;13.150;2022-10-16T06:19:54;15.00;96.30
23477;DHT22;11911;50.768;13.150;2022-10-16T06:32:23;15.20;96.30
23477;DHT22;11911;50.768;13.150;2022-10-16T06:34:48;15.10;96.30
23477;DHT22;11911;50.768;13.150;2022-10-16T06:37:14;15.00;96.30
23477;DHT22;11911;50.768;13.150;2022-10-16T06:39:39;14.90;96.30
23477;DHT22;11911;50.768;13.150;2022-10-16T06:42:05;14.90;96.30
23477;DHT22;11911;50.768;13.150;2022-10-16T06:46:56;14.90;96.30
23477;DHT22;11911;50.768;13.150;2022-10-16T06:49:22;14.90;96.30
23477;DHT22;11911;50.768;13.150;2022-10-16T06:51:48;14.90;96.30
23477;DHT22;11911;50.768;13.150;2022-10-16T06:54:15;15.00;96.30
23477;DHT22;11911;50.768;13.150;2022-10-16T06:56:41;15.90;96.30
23477;DHT22;11911;50.768;13.150;2022-10-16T06:59:07;16.80;96.30
23477;DHT22;11911;50.768;13.150;2022-10-16T07:01:32;16.70;96.30
23477;DHT22;11911;50.768;13.150;2022-10-16T07:03:58;16.50;96.30
23477;DHT22;11911;50.768;13.150;2022-10-16T07:06:26;16.40;96.30
23477;DHT22;11911;50.768;13.150;2022-10-16T07:08:51;16.30;96.30
23477;DHT22;11911;50.768;13.150;2022-10-16T07:11:19;16.20;96.30
23477;DHT22;11911;50.768;13.150;2022-10-16T07:13:46;16.20;96.30
23477;DHT22;11911;50.768;13.150;2022-10-16T07:16:15;16.00;96.30
23477;DHT22;11911;50.768;13.150;2022-10-16T07:21:10;16.10;96.30
23477;DHT22;11911;50.768;13.150;2022-10-16T07:26:02;16.20;96.30
23477;DHT22;11911;50.768;13.150;2022-10-16T07:28:28;16.10;96.30
23477;DHT22;11911;50.768;13.150;2022-10-16T07:30:54;16.10;96.30
23477;DHT22;11911;50.768;13.150;2022-10-16T07:33:20;16.00;96.30
23477;DHT22;11911;50.768;13.150;2022-10-16T07:35:50;16.00;96.30
23477;DHT22;11911;50.768;13.150;2022-10-16T07:38:16;15.80;96.30
23477;DHT22;11911;50.768;13.150;2022-10-16T07:40:42;15.80;96.30
23477;DHT22;11911;50.768;13.150;2022-10-16T07:45:33;16.00;96.30
23477;DHT22;11911;50.768;13.150;2022-10-16T07:50:25;16.10;96.30
23477;DHT22;11911;50.768;13.150;2022-10-16T07:52:50;16.20;96.30
23477;DHT22;11911;50.768;13.150;2022-10-16T07:55:16;16.10;96.30
23477;DHT22;11911;50.768;13.150;2022-10-16T07:57:41;16.20;96.30
23477;DHT22;11911;50.768;13.150;2022-10-16T08:00:07;16.30;96.30
23477;DHT22;11911;50.768;13.150;2022-10-16T08:02:39;16.20;96.30
23477;DHT22;11911;50.768;13.150;2022-10-16T08:05:05;16.30;96.30
23477;DHT22;11911;50.768;13.150;2022-10-16T08:07:31;16.40;96.30
23477;DHT22;11911;50.768;13.150;2022-10-16T08:09:56;16.50;96.30
23477;DHT22;11911;50.768;13.150;2022-10-16T08:12:23;16.60;96.30
23477;DHT22;11911;50.768;13.150;2022-10-16T08:14:48;16.60;96.30
23477;DHT22;11911;50.768;13.150;2022-10-16T08:17:15;16.60;96.30
23477;DHT22;11911;50.768;13.150;2022-10-16T08:19:44;16.80;96.30
23477;DHT22;11911;50.768;13.150;2022-10-16T08:22:10;16.90;96.30
23477;DHT22;11911;50.768;13.150;2022-10-16T08:27:02;17.10;96.30
23477;DHT22;11911;50.768;13.150;2022-10-16T08:29:28;17.30;96.30
23477;DHT22;11911;50.768;13.150;2022-10-16T08:31:53;17.30;96.30
23477;DHT22;11911;50.768;13.150;2022-10-16T08:34:19;17.30;96.30
23477;DHT22;11911;50.768;13.150;2022-10-16T08:36:44;17.50;96.30
23477;DHT22;11911;50.768;13.150;2022-10-16T08:39:10;17.60;96.30
23477;DHT22;11911;50.768;13.150;2022-10-16T08:41:58;17.60;96.30
23477;DHT22;11911;50.768;13.150;2022-10-16T08:44:56;17.80;96.30
23477;DHT22;11911;50.768;13.150;2022-10-16T08:47:41;18.00;96.30
23477;DHT22;11911;50.768;13.150;2022-10-16T08:50:11;18.20;96.30
23477;DHT22;11911;50.768;13.150;2022-10-16T08:52:41;18.30;96.30
23477;DHT22;11911;50.768;13.150;2022-10-16T08:57:49;18.90;96.30
23477;DHT22;11911;50.768;13.150;2022-10-16T09:00:15;19.60;96.30
23477;DHT22;11911;50.768;13.150;2022-10-16T09:02:59;19.60;96.30
23477;DHT22;11911;50.768;13.150;2022-10-16T09:08:39;19.60;96.30
23477;DHT22;11911;50.768;13.150;2022-10-16T09:11:14;19.70;96.30
23477;DHT22;11911;50.768;13.150;2022-10-16T09:14:04;19.40;96.30
23477;DHT22;11911;50.768;13.150;2022-10-16T09:16:38;19.40;96.30
23477;DHT22;11911;50.768;13.150;2022-10-16T09:21:48;19.70;96.30
23477;DHT22;11911;50.768;13.150;2022-10-16T09:24:17;19.70;96.30
23477;DHT22;11911;50.768;13.150;2022-10-16T09:26:43;19.80;96.30
23477;DHT22;11911;50.768;13.150;2022-10-16T09:29:12;19.80;96.30
23477;DHT22;11911;50.768;13.150;2022-10-16T09:34:05;19.50;96.30
23477;DHT22;11911;50.768;13.150;2022-10-16T09:36:40;19.30;96.30
23477;DHT22;11911;50.768;13.150;2022-10-16T09:39:09;19.30;96.30
23477;DHT22;11911;50.768;13.150;2022-10-16T09:41:39;19.20;96.30
23477;DHT22;11911;50.768;13.150;2022-10-16T09:44:33;19.20;96.30
23477;DHT22;11911;50.768;13.150;2022-10-16T09:52:05;19.00;96.30
23477;DHT22;11911;50.768;13.150;2022-10-16T09:57:10;18.80;96.30
23477;DHT22;11911;50.768;13.150;2022-10-16T09:59:46;18.90;96.30
23477;DHT22;11911;50.768;13.150;2022-10-16T10:02:14;18.90;96.30
23477;DHT22;11911;50.768;13.150;2022-10-16T10:04:50;18.90;96.30
23477;DHT22;11911;50.768;13.150;2022-10-16T10:07:25;18.90;96.30
23477;DHT22;11911;50.768;13.150;2022-10-16T10:09:52;19.00;96.30
23477;DHT22;11911;50.768;13.150;2022-10-16T10:12:24;19.00;96.30
23477;DHT22;11911;50.768;13.150;2022-10-16T10:14:52;18.90;96.30
23477;DHT22;11911;50.768;13.150;2022-10-16T10:17:25;18.80;96.30
23477;DHT22;11911;50.768;13.150;2022-10-16T10:19:58;18.90;96.30
23477;DHT22;11911;50.768;13.150;2022-10-16T10:22:31;19.20;96.30
23477;DHT22;11911;50.768;13.150;2022-10-16T10:30:19;19.60;96.30
23477;DHT22;11911;50.768;13.150;2022-10-16T10:57:45;20.70;96.30
23477;DHT22;11911;50.768;13.150;2022-10-16T11:05:59;20.70;96.30
23477;DHT22;11911;50.768;13.150;2022-10-16T11:08:36;20.60;96.30
23477;DHT22;11911;50.768;13.150;2022-10-16T11:11:29;20.40;96.30
23477;DHT22;11911;50.768;13.150;2022-10-16T11:14:16;20.20;96.30
23477;DHT22;11911;50.768;13.150;2022-10-16T11:16:56;20.30;96.30
23477;DHT22;11911;50.768;13.150;2022-10-16T11:22:16;20.50;96.30
23477;DHT22;11911;50.768;13.150;2022-10-16T11:27:17;21.40;96.30
23477;DHT22;11911;50.768;13.150;2022-10-16T11:29:54;21.50;96.30
23477;DHT22;11911;50.768;13.150;2022-10-16T11:32:26;21.90;96.30
23477;DHT22;11911;50.768;13.150;2022-10-16T11:34:59;21.90;96.30
23477;DHT22;11911;50.768;13.150;2022-10-16T11:37:40;21.70;96.30
23477;DHT22;11911;50.768;13.150;2022-10-16T11:40:29;21.40;96.30
23477;DHT22;11911;50.768;13.150;2022-10-16T11:43:25;21.40;96.30
23477;DHT22;11911;50.768;13.150;2022-10-16T11:45:56;21.60;96.30
23477;DHT22;11911;50.768;13.150;2022-10-16T11:48:51;21.50;96.30
23477;DHT22;11911;50.768;13.150;2022-10-16T11:54:14;21.30;96.30
23477;DHT22;11911;50.768;13.150;2022-10-16T11:56:44;21.30;96.30
23477;DHT22;11911;50.768;13.150;2022-10-16T11:59:27;21.20;96.30
23477;DHT22;11911;50.768;13.150;2022-10-16T12:02:17;21.50;96.30
23477;DHT22;11911;50.768;13.150;2022-10-16T12:04:59;21.40;96.30
23477;DHT22;11911;50.768;13.150;2022-10-16T12:07:33;21.60;96.30
23477;DHT22;11911;50.768;13.150;2022-10-16T12:10:22;22.00;96.30
23477;DHT22;11911;50.768;13.150;2022-10-16T12:12:49;22.20;96.30
23477;DHT22;11911;50.768;13.150;2022-10-16T12:15:27;22.60;96.30
23477;DHT22;11911;50.768;13.150;2022-10-16T12:17:53;23.20;96.30
23477;DHT22;11911;50.768;13.150;2022-10-16T12:20:21;23.40;96.30
23477;DHT22;11911;50.768;13.150;2022-10-16T12:23:07;23.40;96.30
23477;DHT22;11911;50.768;13.150;2022-10-16T12:25:54;23.40;96.30
23477;DHT22;11911;50.768;13.150;2022-10-16T12:35:50;22.30;96.30
23477;DHT22;11911;50.768;13.150;2022-10-16T14:23:18;20.20;96.30
23477;DHT22;11911;50.768;13.150;2022-10-16T14:35:37;20.40;96.30
23477;DHT22;11911;50.768;13.150;2022-10-16T14:40:35;20.30;96.30
23477;DHT22;11911;50.768;13.150;2022-10-16T14:43:02;20.30;96.30
23477;DHT22;11911;50.768;13.150;2022-10-16T14:45:30;20.20;96.30
23477;DHT22;11911;50.768;13.150;2022-10-16T14:48:03;20.20;96.30
23477;DHT22;11911;50.768;13.150;2022-10-16T14:52:58;20.40;96.30
23477;DHT22;11911;50.768;13.150;2022-10-16T14:55:24;20.30;96.30
23477;DHT22;11911;50.768;13.150;2022-10-16T14:57:50;20.20;96.30
23477;DHT22;11911;50.768;13.150;2022-10-16T15:02:48;20.10;96.30
23477;DHT22;11911;50.768;13.150;2022-10-16T15:07:42;20.10;96.30
23477;DHT22;11911;50.768;13.150;2022-10-16T15:10:08;19.90;96.30
23477;DHT22;11911;50.768;13.150;2022-10-16T15:19:51;19.30;96.30
23477;DHT22;11911;50.768;13.150;2022-10-16T15:22:17;19.20;96.30
23477;DHT22;11911;50.768;13.150;2022-10-16T15:27:08;18.80;96.30
23477;DHT22;11911;50.768;13.150;2022-10-16T15:32:00;18.60;96.30
23477;DHT22;11911;50.768;13.150;2022-10-16T15:34:25;18.50;96.30
23477;DHT22;11911;50.768;13.150;2022-10-16T15:36:51;18.40;96.30
23477;DHT22;11911;50.768;13.150;2022-10-16T15:41:45;18.30;96.30
23477;DHT22;11911;50.768;13.150;2022-10-16T15:44:18;18.20;96.30
23477;DHT22;11911;50.768;13.150;2022-10-16T15:54:07;17.70;96.30
23477;DHT22;11911;50.768;13.150;2022-10-16T15:56:32;17.60;96.30
23477;DHT22;11911;50.768;13.150;2022-10-16T16:03:54;17.10;96.30
23477;DHT22;11911;50.768;13.150;2022-10-16T16:06:21;16.90;96.30
23477;DHT22;11911;50.768;13.150;2022-10-16T16:11:15;16.60;96.30
23477;DHT22;11911;50.768;13.150;2022-10-16T16:13:41;16.40;96.30
23477;DHT22;11911;50.768;13.150;2022-10-16T16:16:08;16.20;96.30
23477;DHT22;11911;50.768;13.150;2022-10-16T16:28:39;15.70;96.30
23477;DHT22;11911;50.768;13.150;2022-10-16T16:31:05;15.50;96.30
23477;DHT22;11911;50.768;13.150;2022-10-16T16:33:30;15.50;96.30
23477;DHT22;11911;50.768;13.150;2022-10-16T16:43:19;15.10;96.30
23477;DHT22;11911;50.768;13.150;2022-10-16T16:53:03;14.90;96.30
23477;DHT22;11911;50.768;13.150;2022-10-16T17:00:22;14.80;96.30
23477;DHT22;11911;50.768;13.150;2022-10-16T17:02:51;14.70;96.30
23477;DHT22;11911;50.768;13.150;2022-10-16T17:05:17;14.70;96.30
23477;DHT22;11911;50.768;13.150;2022-10-16T17:07:43;14.60;96.30
23477;DHT22;11911;50.768;13.150;2022-10-16T17:10:08;14.60;96.30
23477;DHT22;11911;50.768;13.150;2022-10-16T17:12:34;14.60;96.30
23477;DHT22;11911;50.768;13.150;2022-10-16T17:15:00;14.70;96.30
23477;DHT22;11911;50.768;13.150;2022-10-16T17:17:25;14.70;96.30
23477;DHT22;11911;50.768;13.150;2022-10-16T17:19:51;14.80;96.30
23477;DHT22;11911;50.768;13.150;2022-10-16T17:22:18;14.90;96.30
23477;DHT22;11911;50.768;13.150;2022-10-16T17:29:37;15.00;96.30
23477;DHT22;11911;50.768;13.150;2022-10-16T17:32:02;15.00;96.30
23477;DHT22;11911;50.768;13.150;2022-10-16T17:39:20;14.80;96.30
23477;DHT22;11911;50.768;13.150;2022-10-16T17:41:47;14.70;96.30
23477;DHT22;11911;50.768;13.150;2022-10-16T17:44:13;14.60;96.30
23477;DHT22;11911;50.768;13.150;2022-10-16T17:56:29;14.20;96.30
23477;DHT22;11911;50.768;13.150;2022-10-16T18:01:30;14.10;96.30
23477;DHT22;11911;50.768;13.150;2022-10-16T18:04:01;14.00;96.30
23477;DHT22;11911;50.768;13.150;2022-10-16T18:06:30;13.90;96.30
23477;DHT22;11911;50.768;13.150;2022-10-16T18:16:17;13.60;96.30
23477;DHT22;11911;50.768;13.150;2022-10-16T18:18:43;13.70;96.30
23477;DHT22;11911;50.768;13.150;2022-10-16T18:21:11;13.70;96.30
23477;DHT22;11911;50.768;13.150;2022-10-16T18:23:37;13.80;96.30
23477;DHT22;11911;50.768;13.150;2022-10-16T18:33:23;13.80;96.30
23477;DHT22;11911;50.768;13.150;2022-10-16T18:35:49;13.80;96.30
23477;DHT22;11911;50.768;13.150;2022-10-16T18:38:15;13.80;96.30
23477;DHT22;11911;50.768;13.150;2022-10-16T18:40:41;13.80;96.30
23477;DHT22;11911;50.768;13.150;2022-10-16T18:47:58;14.00;96.30
23477;DHT22;11911;50.768;13.150;2022-10-16T18:50:24;14.00;96.30
23477;DHT22;11911;50.768;13.150;2022-10-16T18:55:15;14.20;96.30
23477;DHT22;11911;50.768;13.150;2022-10-16T19:04:59;14.00;96.30
23477;DHT22;11911;50.768;13.150;2022-10-16T19:07:24;14.00;96.30
23477;DHT22;11911;50.768;13.150;2022-10-16T19:12:16;13.80;96.30
23477;DHT22;11911;50.768;13.150;2022-10-16T19:14:42;13.80;96.30
23477;DHT22;11911;50.768;13.150;2022-10-16T19:21:59;14.00;96.30
23477;DHT22;11911;50.768;13.150;2022-10-16T19:24:52;14.10;96.30
23477;DHT22;11911;50.768;13.150;2022-10-16T19:27:19;14.20;96.30
23477;DHT22;11911;50.768;13.150;2022-10-16T19:29:44;14.30;96.30
23477;DHT22;11911;50.768;13.150;2022-10-16T19:32:10;14.30;96.30
23477;DHT22;11911;50.768;13.150;2022-10-16T19:34:35;14.30;96.30
23477;DHT22;11911;50.768;13.150;2022-10-16T19:37:01;14.30;96.30
23477;DHT22;11911;50.768;13.150;2022-10-16T19:46:45;14.40;96.30
23477;DHT22;11911;50.768;13.150;2022-10-16T19:49:14;14.30;96.30
23477;DHT22;11911;50.768;13.150;2022-10-16T19:54:11;14.20;96.30
23477;DHT22;11911;50.768;13.150;2022-10-16T19:59:04;14.10;96.30
23477;DHT22;11911;50.768;13.150;2022-10-16T20:01:30;14.10;96.30
23477;DHT22;11911;50.768;13.150;2022-10-16T20:06:23;14.00;96.30
23477;DHT22;11911;50.768;13.150;2022-10-16T20:11:18;13.90;96.30
23477;DHT22;11911;50.768;13.150;2022-10-16T20:16:11;13.80;96.30
23477;DHT22;11911;50.768;13.150;2022-10-16T20:23:40;14.00;96.30
23477;DHT22;11911;50.768;13.150;2022-10-16T20:31:08;14.00;96.30
23477;DHT22;11911;50.768;13.150;2022-10-16T20:33:35;14.00;96.30
23477;DHT22;11911;50.768;13.150;2022-10-16T20:36:00;14.00;96.30
23477;DHT22;11911;50.768;13.150;2022-10-16T20:38:26;13.90;96.30
23477;DHT22;11911;50.768;13.150;2022-10-16T20:40:51;13.80;96.30
23477;DHT22;11911;50.768;13.150;2022-10-16T20:43:18;13.60;96.30
23477;DHT22;11911;50.768;13.150;2022-10-16T20:45:44;13.50;96.30
23477;DHT22;11911;50.768;13.150;2022-10-16T20:48:11;13.40;96.30
23477;DHT22;11911;50.768;13.150;2022-10-16T20:50:37;13.20;96.30
23477;DHT22;11911;50.768;13.150;2022-10-16T20:53:03;12.90;96.30
23477;DHT22;11911;50.768;13.150;2022-10-16T20:55:29;12.60;96.30
23477;DHT22;11911;50.768;13.150;2022-10-16T21:00:22;12.50;96.30
23477;DHT22;11911;50.768;13.150;2022-10-16T21:02:51;12.50;96.30
23477;DHT22;11911;50.768;13.150;2022-10-16T21:51:47;12.80;96.30
23477;DHT22;11911;50.768;13.150;2022-10-16T21:54:16;12.70;96.30
23477;DHT22;11911;50.768;13.150;2022-10-16T22:16:19;12.50;96.30
23477;DHT22;11911;50.768;13.150;2022-10-16T22:26:05;12.40;96.30
23477;DHT22;11911;50.768;13.150;2022-10-16T22:31:01;12.30;96.30
23477;DHT22;11911;50.768;13.150;2022-10-16T22:33:27;12.20;96.30
23477;DHT22;11911;50.768;13.150;2022-10-16T22:48:03;11.90;96.30
23477;DHT22;11911;50.768;13.150;2022-10-16T22:50:29;12.00;96.30
23477;DHT22;11911;50.768;13.150;2022-10-16T22:55:22;12.10;96.30
23477;DHT22;11911;50.768;13.150;2022-10-16T22:57:47;12.10;96.30
23477;DHT22;11911;50.768;13.150;2022-10-16T23:05:08;11.80;96.30
23477;DHT22;11911;50.768;13.150;2022-10-16T23:07:34;11.80;96.30
23477;DHT22;11911;50.768;13.150;2022-10-16T23:53:49;12.40;96.30
